Terminal Aerodrome Forecast
Issued by NWS

Home | Current Version | Previous Version | Text Only | Print | Product List | Glossary On
Versions: 1 2 3 4 5 6 7 8 9 10 11 12 13 14 15
000
FTUS42 KRAH 112327
TAFRWI
TAF
KRWI 112327Z 1200/1224 VRB03KT P6SM SKC
     FM121700 25009G18KT P6SM SCT040
     FM122300 29011G25KT P6SM FEW045=

USA.gov is the U.S. government's official web portal to all federal, state and local government web resources and services.